Time;durP1;ratioP1;P1;durP2;ratioP2;P2;SDS_P1;SDS_P2;PMS_P1;PMS_P2;Temp;Humidity;BMP_temperature;BMP_pressure;BME280_temperature;BME280_humidity;BME280_pressure;Samples;Min_cycle;Max_cycle;Signal;HPM_P1;HPM_P2
2023/09/25 00:00:55;;;;;;;;;;;8.30;99.90;;;;;;7590781;19;19929;-73
2023/09/25 00:03:27;;;;;;;;;;;8.30;99.90;;;;;;7602300;19;19918;-76
2023/09/25 00:06:00;;;;;;;;;;;8.30;99.90;;;;;;7596329;19;19919;-72
2023/09/25 00:08:32;;;;;;;;;;;8.40;99.90;;;;;;7605297;19;21014;-76
2023/09/25 00:11:05;;;;;;;;;;;8.40;99.90;;;;;;7593025;19;19915;-75
2023/09/25 00:13:37;;;;;;;;;;;8.40;99.90;;;;;;7602758;19;19919;-75
2023/09/25 00:16:12;;;;;;;;;;;8.40;99.90;;;;;;7597577;19;19922;-75
2023/09/25 00:18:45;;;;;;;;;;;8.30;99.90;;;;;;7600943;19;20414;-72
2023/09/25 00:21:18;;;;;;;;;;;8.30;99.90;;;;;;7601311;19;19926;-73
2023/09/25 00:23:50;;;;;;;;;;;8.40;99.90;;;;;;7594580;19;20685;-75
2023/09/25 00:26:22;;;;;;;;;;;8.30;99.90;;;;;;7600496;19;19919;-74
2023/09/25 00:28:56;;;;;;;;;;;8.30;99.90;;;;;;7600756;19;19950;-77
2023/09/25 00:31:28;;;;;;;;;;;8.30;99.90;;;;;;7599985;19;19932;-74
2023/09/25 00:34:00;;;;;;;;;;;8.30;99.90;;;;;;7598008;19;19952;-72
2023/09/25 00:36:33;;;;;;;;;;;8.20;99.90;;;;;;7594945;19;19922;-75
2023/09/25 00:39:08;;;;;;;;;;;8.20;99.90;;;;;;7593078;19;19925;-76
2023/09/25 00:41:40;;;;;;;;;;;8.10;99.90;;;;;;7599558;19;19926;-75
2023/09/25 00:44:12;;;;;;;;;;;8.10;99.90;;;;;;7599786;19;19927;-74
2023/09/25 00:46:45;;;;;;;;;;;8.10;99.90;;;;;;7591892;19;20387;-76
2023/09/25 00:49:18;;;;;;;;;;;8.10;99.90;;;;;;7601133;19;19925;-75
2023/09/25 00:51:51;;;;;;;;;;;8.00;99.90;;;;;;7595863;19;19934;-73
2023/09/25 00:54:23;;;;;;;;;;;8.00;99.90;;;;;;7593364;19;20427;-77
2023/09/25 00:57:12;;;;;;;;;;;8.00;99.90;;;;;;7600873;19;20368;-75
2023/09/25 00:59:44;;;;;;;;;;;8.00;99.90;;;;;;7600808;19;19960;-75
2023/09/25 01:02:16;;;;;;;;;;;7.80;99.90;;;;;;7591219;19;20379;-77
2023/09/25 01:04:49;;;;;;;;;;;7.80;99.90;;;;;;7595980;19;19919;-74
2023/09/25 01:07:21;;;;;;;;;;;7.90;99.90;;;;;;7606220;19;19958;-74
2023/09/25 01:10:03;;;;;;;;;;;7.90;99.90;;;;;;7599674;19;19933;-76
2023/09/25 01:12:37;;;;;;;;;;;7.80;99.90;;;;;;7611712;19;20487;-73
2023/09/25 01:15:09;;;;;;;;;;;7.80;99.90;;;;;;7603326;19;19919;-74
2023/09/25 01:17:42;;;;;;;;;;;7.80;99.90;;;;;;7598947;19;19923;-74
2023/09/25 01:20:17;;;;;;;;;;;7.80;99.90;;;;;;7607197;19;19919;-75
2023/09/25 01:22:50;;;;;;;;;;;7.80;99.90;;;;;;7602247;19;19922;-74
2023/09/25 01:25:25;;;;;;;;;;;7.80;99.90;;;;;;7604976;19;19934;-73
2023/09/25 01:27:57;;;;;;;;;;;7.80;99.90;;;;;;7605747;19;20425;-74
2023/09/25 01:30:30;;;;;;;;;;;7.70;99.90;;;;;;7605138;19;19984;-74
2023/09/25 01:33:04;;;;;;;;;;;7.70;99.90;;;;;;7592633;19;19923;-74
2023/09/25 01:35:36;;;;;;;;;;;7.70;99.90;;;;;;7608461;19;19914;-73
2023/09/25 01:38:08;;;;;;;;;;;7.70;99.90;;;;;;7602681;19;19907;-74
2023/09/25 01:40:41;;;;;;;;;;;7.70;99.90;;;;;;7608098;19;20982;-72
2023/09/25 01:43:13;;;;;;;;;;;7.80;99.90;;;;;;7603950;19;19918;-73
2023/09/25 01:45:45;;;;;;;;;;;7.80;99.90;;;;;;7606650;19;19927;-74
2023/09/25 01:48:17;;;;;;;;;;;7.80;99.90;;;;;;7606375;19;19922;-74
2023/09/25 01:50:50;;;;;;;;;;;7.70;99.90;;;;;;7604368;19;19914;-74
2023/09/25 01:53:22;;;;;;;;;;;7.70;99.90;;;;;;7604564;19;19930;-75
2023/09/25 01:55:54;;;;;;;;;;;7.70;99.90;;;;;;7603500;19;19950;-75
2023/09/25 01:58:26;;;;;;;;;;;7.60;99.90;;;;;;7609592;19;19914;-73
2023/09/25 02:00:58;;;;;;;;;;;7.60;99.90;;;;;;7598155;19;19926;-73
2023/09/25 02:03:31;;;;;;;;;;;7.70;99.90;;;;;;7609018;19;20515;-76
2023/09/25 02:06:03;;;;;;;;;;;7.60;99.90;;;;;;7603367;19;19922;-73
2023/09/25 02:08:35;;;;;;;;;;;7.60;99.90;;;;;;7607448;19;19918;-74
2023/09/25 02:11:07;;;;;;;;;;;7.60;99.90;;;;;;7600099;19;19968;-74
2023/09/25 02:13:40;;;;;;;;;;;7.70;99.90;;;;;;7603701;19;19919;-74
2023/09/25 02:16:12;;;;;;;;;;;7.70;99.90;;;;;;7600667;19;21045;-75
2023/09/25 02:18:45;;;;;;;;;;;7.70;99.90;;;;;;7609366;19;19951;-74
2023/09/25 02:21:17;;;;;;;;;;;7.60;99.90;;;;;;7602760;19;19923;-74
2023/09/25 02:23:49;;;;;;;;;;;7.60;99.90;;;;;;7609146;19;19926;-75
2023/09/25 02:26:22;;;;;;;;;;;7.60;99.90;;;;;;7603473;19;20535;-73
2023/09/25 02:28:55;;;;;;;;;;;7.60;99.90;;;;;;7612161;19;19978;-77
2023/09/25 02:31:27;;;;;;;;;;;7.50;99.90;;;;;;7610408;19;19988;-73
2023/09/25 02:34:00;;;;;;;;;;;7.60;99.90;;;;;;7609546;19;19922;-75
2023/09/25 02:36:33;;;;;;;;;;;7.60;99.90;;;;;;7605863;19;21126;-75
2023/09/25 02:39:06;;;;;;;;;;;7.60;99.90;;;;;;7602250;19;20521;-74
2023/09/25 02:41:39;;;;;;;;;;;7.60;99.90;;;;;;7604216;19;19915;-75
2023/09/25 02:44:12;;;;;;;;;;;7.70;99.90;;;;;;7608277;19;20344;-74
2023/09/25 02:46:44;;;;;;;;;;;7.60;99.90;;;;;;7609016;19;19956;-73
2023/09/25 02:49:16;;;;;;;;;;;7.60;99.90;;;;;;7607315;19;20442;-73
2023/09/25 02:51:49;;;;;;;;;;;7.60;99.90;;;;;;7606616;19;21032;-73
2023/09/25 02:54:21;;;;;;;;;;;7.60;99.90;;;;;;7602741;19;19982;-74
2023/09/25 02:56:53;;;;;;;;;;;7.50;99.90;;;;;;7614000;19;21049;-74
2023/09/25 02:59:25;;;;;;;;;;;7.40;99.90;;;;;;7606631;19;19915;-74
2023/09/25 03:01:58;;;;;;;;;;;7.50;99.90;;;;;;7608194;19;19910;-75
2023/09/25 03:04:30;;;;;;;;;;;7.40;99.90;;;;;;7610402;19;19918;-73
2023/09/25 03:07:03;;;;;;;;;;;7.40;99.90;;;;;;7600907;19;19975;-73
2023/09/25 03:09:35;;;;;;;;;;;7.40;99.90;;;;;;7609058;19;19983;-72
2023/09/25 03:12:09;;;;;;;;;;;7.40;99.90;;;;;;7611384;19;19918;-75
2023/09/25 03:14:41;;;;;;;;;;;7.40;99.90;;;;;;7608463;19;19960;-74
2023/09/25 03:17:13;;;;;;;;;;;7.30;99.90;;;;;;7611028;19;19926;-75
2023/09/25 03:19:45;;;;;;;;;;;7.30;99.90;;;;;;7613562;19;20458;-74
2023/09/25 03:22:18;;;;;;;;;;;7.40;99.90;;;;;;7619874;19;20013;-75
2023/09/25 03:24:50;;;;;;;;;;;7.30;99.90;;;;;;7615724;19;19937;-75
2023/09/25 03:27:22;;;;;;;;;;;7.30;99.90;;;;;;7619850;19;19919;-75
2023/09/25 03:29:55;;;;;;;;;;;7.20;99.90;;;;;;7615632;19;20707;-74
2023/09/25 03:32:28;;;;;;;;;;;7.20;99.90;;;;;;7608577;19;19929;-76
2023/09/25 03:35:00;;;;;;;;;;;7.20;99.90;;;;;;7615614;19;19933;-75
2023/09/25 03:37:32;;;;;;;;;;;7.20;99.90;;;;;;7602661;19;19964;-75
2023/09/25 03:40:08;;;;;;;;;;;7.20;99.90;;;;;;7613302;19;19970;-76
2023/09/25 03:42:41;;;;;;;;;;;7.10;99.90;;;;;;7606606;19;20260;-76
2023/09/25 03:45:13;;;;;;;;;;;7.10;99.90;;;;;;7636195;19;19915;-75
2023/09/25 03:47:48;;;;;;;;;;;7.00;99.90;;;;;;7614740;19;19974;-75
2023/09/25 03:50:20;;;;;;;;;;;7.00;99.90;;;;;;7606012;19;19929;-76
2023/09/25 03:52:57;;;;;;;;;;;7.00;99.90;;;;;;7620223;19;19933;-76
2023/09/25 03:55:30;;;;;;;;;;;7.00;99.90;;;;;;7626519;19;19927;-74
2023/09/25 03:58:02;;;;;;;;;;;7.00;99.90;;;;;;7621149;19;19923;-75
2023/09/25 04:00:36;;;;;;;;;;;6.90;99.90;;;;;;7615832;19;20211;-75
2023/09/25 04:03:08;;;;;;;;;;;7.00;99.90;;;;;;7613809;19;19918;-75
2023/09/25 04:05:40;;;;;;;;;;;6.90;99.90;;;;;;7614727;19;19929;-76
2023/09/25 04:08:13;;;;;;;;;;;6.90;99.90;;;;;;7618603;19;20466;-75
2023/09/25 04:10:45;;;;;;;;;;;6.90;99.90;;;;;;7623811;19;19955;-76
2023/09/25 04:13:21;;;;;;;;;;;6.90;99.90;;;;;;7614023;19;19919;-75
2023/09/25 04:15:54;;;;;;;;;;;6.90;99.90;;;;;;7607268;19;19919;-75
2023/09/25 04:18:26;;;;;;;;;;;6.90;99.90;;;;;;7612212;19;20609;-76
2023/09/25 04:21:11;;;;;;;;;;;7.90;99.90;;;;;;7619177;19;19922;-75
2023/09/25 04:23:43;;;;;;;;;;;6.90;99.90;;;;;;7626325;19;19939;-75
2023/09/25 04:26:16;;;;;;;;;;;6.80;99.90;;;;;;7616906;19;20570;-75
2023/09/25 04:28:48;;;;;;;;;;;6.80;99.90;;;;;;7610153;19;19942;-74
2023/09/25 04:31:20;;;;;;;;;;;6.80;99.90;;;;;;7620702;19;20005;-74
2023/09/25 04:33:52;;;;;;;;;;;6.90;99.90;;;;;;7622836;19;19927;-74
2023/09/25 04:36:25;;;;;;;;;;;6.90;99.90;;;;;;7611812;19;19922;-75
2023/09/25 04:38:57;;;;;;;;;;;6.80;99.90;;;;;;7568571;19;20520;-75
2023/09/25 04:41:30;;;;;;;;;;;6.70;99.90;;;;;;7578678;19;20002;-76
2023/09/25 04:44:04;;;;;;;;;;;6.70;99.90;;;;;;7603112;19;21639;-77
2023/09/25 04:46:37;;;;;;;;;;;6.70;99.90;;;;;;7594365;19;19931;-76
2023/09/25 04:49:12;;;;;;;;;;;6.70;99.90;;;;;;7607596;19;19914;-76
2023/09/25 04:51:46;;;;;;;;;;;6.70;99.90;;;;;;7610040;19;20578;-76
2023/09/25 04:54:21;;;;;;;;;;;7.80;99.90;;;;;;7573587;19;19923;-77
2023/09/25 04:56:53;;;;;;;;;;;6.80;99.90;;;;;;7586460;19;19926;-77
2023/09/25 04:59:25;;;;;;;;;;;6.90;99.90;;;;;;7596191;19;21012;-77
2023/09/25 05:01:57;;;;;;;;;;;7.00;99.90;;;;;;7582870;19;20265;-78
2023/09/25 05:04:30;;;;;;;;;;;7.10;99.90;;;;;;7574973;19;20207;-75
2023/09/25 05:07:02;;;;;;;;;;;7.10;99.90;;;;;;7590486;19;19918;-73
2023/09/25 05:09:35;;;;;;;;;;;7.20;99.90;;;;;;7550090;19;19937;-74
2023/09/25 05:12:07;;;;;;;;;;;7.20;99.90;;;;;;7576339;19;20850;-75
2023/09/25 05:14:39;;;;;;;;;;;7.30;99.90;;;;;;7573429;19;19926;-76
2023/09/25 05:17:11;;;;;;;;;;;7.30;99.90;;;;;;7585746;19;20844;-74
2023/09/25 05:19:43;;;;;;;;;;;7.40;99.90;;;;;;7607417;19;19919;-75
2023/09/25 05:22:16;;;;;;;;;;;7.40;99.90;;;;;;7609319;19;19926;-78
2023/09/25 05:24:48;;;;;;;;;;;7.50;99.90;;;;;;7597215;19;20915;-76
2023/09/25 05:27:21;;;;;;;;;;;7.60;99.90;;;;;;7600624;19;19995;-79
2023/09/25 05:29:56;;;;;;;;;;;7.60;99.90;;;;;;7586035;19;20010;-78
2023/09/25 05:32:28;;;;;;;;;;;7.70;99.90;;;;;;7571747;19;19962;-77
2023/09/25 05:35:00;;;;;;;;;;;7.80;99.90;;;;;;7592531;19;19998;-76
2023/09/25 05:37:33;;;;;;;;;;;7.90;99.90;;;;;;7609593;19;19930;-76
2023/09/25 05:40:06;;;;;;;;;;;7.90;99.90;;;;;;7609961;19;20323;-76
2023/09/25 05:42:38;;;;;;;;;;;7.90;99.90;;;;;;7627055;19;19928;-76
2023/09/25 05:45:11;;;;;;;;;;;8.00;99.90;;;;;;7603930;19;20620;-76
2023/09/25 05:47:47;;;;;;;;;;;8.00;99.90;;;;;;7599589;19;19929;-76
2023/09/25 05:50:20;;;;;;;;;;;8.10;99.90;;;;;;7605740;19;19918;-76
2023/09/25 05:52:52;;;;;;;;;;;8.10;99.90;;;;;;7610250;19;19918;-75
2023/09/25 05:55:24;;;;;;;;;;;8.20;99.90;;;;;;7597927;19;19925;-77
2023/09/25 05:57:56;;;;;;;;;;;8.20;99.90;;;;;;7598378;19;19935;-76
2023/09/25 06:00:29;;;;;;;;;;;8.20;99.90;;;;;;7601709;19;19952;-75
2023/09/25 06:03:01;;;;;;;;;;;8.30;99.90;;;;;;7609321;19;19925;-75
2023/09/25 06:05:33;;;;;;;;;;;8.30;99.90;;;;;;7607737;19;20572;-75
2023/09/25 06:08:06;;;;;;;;;;;8.40;99.90;;;;;;7609778;19;19930;-77
2023/09/25 06:10:39;;;;;;;;;;;8.40;99.90;;;;;;7603459;19;19923;-74
2023/09/25 06:13:11;;;;;;;;;;;8.50;99.90;;;;;;7596039;19;19941;-77
2023/09/25 06:15:46;;;;;;;;;;;8.60;99.90;;;;;;7590771;19;19958;-76
2023/09/25 06:18:18;;;;;;;;;;;8.80;99.90;;;;;;7582368;19;19923;-76
2023/09/25 06:20:50;;;;;;;;;;;8.90;99.90;;;;;;7593838;19;19918;-78
2023/09/25 06:23:22;;;;;;;;;;;8.90;99.90;;;;;;7588033;19;19922;-77
2023/09/25 06:25:54;;;;;;;;;;;9.10;99.90;;;;;;7602876;19;19979;-75
2023/09/25 06:28:29;;;;;;;;;;;9.10;99.90;;;;;;7591050;19;19918;-77
2023/09/25 06:31:02;;;;;;;;;;;9.20;99.90;;;;;;7600151;19;19915;-75
2023/09/25 06:33:35;;;;;;;;;;;9.30;99.90;;;;;;7587643;19;20047;-77
2023/09/25 06:36:07;;;;;;;;;;;9.50;99.90;;;;;;7580761;19;20265;-75
2023/09/25 06:38:39;;;;;;;;;;;9.50;99.90;;;;;;7603619;19;19974;-79
2023/09/25 06:41:12;;;;;;;;;;;9.70;99.90;;;;;;7604441;19;20695;-76
2023/09/25 06:43:44;;;;;;;;;;;9.80;99.90;;;;;;7610321;19;19914;-76
2023/09/25 06:46:16;;;;;;;;;;;9.90;99.90;;;;;;7607034;19;19929;-75
2023/09/25 06:48:50;;;;;;;;;;;10.00;99.90;;;;;;7609234;19;19956;-77
2023/09/25 06:51:23;;;;;;;;;;;10.20;99.90;;;;;;7607219;19;19918;-76
2023/09/25 06:53:56;;;;;;;;;;;10.20;99.90;;;;;;7609801;19;20002;-78
2023/09/25 06:56:28;;;;;;;;;;;10.30;99.90;;;;;;7601886;19;19945;-79
2023/09/25 06:59:00;;;;;;;;;;;10.30;99.90;;;;;;7608832;19;19918;-76
2023/09/25 07:01:33;;;;;;;;;;;10.40;99.90;;;;;;7604261;19;19919;-78
2023/09/25 07:04:06;;;;;;;;;;;10.50;99.90;;;;;;7611446;19;19922;-78
2023/09/25 07:06:39;;;;;;;;;;;10.60;99.90;;;;;;7605620;19;19923;-79
2023/09/25 07:09:14;;;;;;;;;;;10.60;99.90;;;;;;7610000;19;20002;-78
2023/09/25 07:11:46;;;;;;;;;;;10.50;99.90;;;;;;7609216;19;19930;-78
2023/09/25 07:14:18;;;;;;;;;;;10.70;99.90;;;;;;7607470;19;19922;-77
2023/09/25 07:16:51;;;;;;;;;;;10.70;99.90;;;;;;7607746;19;20434;-77
2023/09/25 07:19:23;;;;;;;;;;;10.70;99.90;;;;;;7607480;19;19930;-77
2023/09/25 07:21:56;;;;;;;;;;;10.70;99.90;;;;;;7609674;19;19918;-77
2023/09/25 07:24:28;;;;;;;;;;;10.80;99.90;;;;;;7601358;19;19922;-77
2023/09/25 07:27:00;;;;;;;;;;;11.00;99.90;;;;;;7607192;19;19933;-79
2023/09/25 07:29:33;;;;;;;;;;;11.20;99.90;;;;;;7603923;19;19926;-76
2023/09/25 07:32:13;;;;;;;;;;;11.40;99.90;;;;;;7606817;19;19921;-77
2023/09/25 07:34:45;;;;;;;;;;;11.40;99.90;;;;;;7605095;19;20014;-79
2023/09/25 07:37:17;;;;;;;;;;;11.70;99.90;;;;;;7601507;19;19928;-79
2023/09/25 07:39:49;;;;;;;;;;;11.70;99.90;;;;;;7607662;19;19922;-78
2023/09/25 07:42:22;;;;;;;;;;;11.90;99.90;;;;;;7605415;19;20381;-78
2023/09/25 07:44:54;;;;;;;;;;;12.10;99.90;;;;;;7601950;19;19942;-78
2023/09/25 07:47:29;;;;;;;;;;;12.00;99.90;;;;;;7605532;19;20381;-78
2023/09/25 07:50:10;;;;;;;;;;;12.80;99.90;;;;;;7611693;19;19925;-78
2023/09/25 07:52:42;;;;;;;;;;;12.30;99.90;;;;;;7607003;19;19935;-78
2023/09/25 07:55:15;;;;;;;;;;;12.40;99.90;;;;;;7607382;19;19942;-76
2023/09/25 07:57:49;;;;;;;;;;;12.50;99.90;;;;;;7603412;19;19921;-78
2023/09/25 08:00:24;;;;;;;;;;;12.50;99.90;;;;;;7609575;19;19922;-78
2023/09/25 08:02:56;;;;;;;;;;;12.70;99.90;;;;;;7588162;19;19922;-79
2023/09/25 08:05:29;;;;;;;;;;;12.60;99.90;;;;;;7597640;19;20027;-78
2023/09/25 08:08:01;;;;;;;;;;;12.60;99.90;;;;;;7596130;19;19949;-77
2023/09/25 08:10:34;;;;;;;;;;;12.80;99.90;;;;;;7600537;19;19927;-78
2023/09/25 08:13:07;;;;;;;;;;;12.90;99.90;;;;;;7605973;19;19917;-78
2023/09/25 08:15:40;;;;;;;;;;;13.00;99.90;;;;;;7605682;19;19910;-79
2023/09/25 08:18:14;;;;;;;;;;;13.10;99.90;;;;;;7617055;19;19914;-78
2023/09/25 08:20:46;;;;;;;;;;;13.00;99.90;;;;;;7616103;19;20353;-78
2023/09/25 08:23:18;;;;;;;;;;;13.00;99.90;;;;;;7611913;19;19923;-78
2023/09/25 08:25:50;;;;;;;;;;;13.00;99.90;;;;;;7592989;19;19918;-77
2023/09/25 08:28:23;;;;;;;;;;;13.10;99.90;;;;;;7618674;19;20337;-78
2023/09/25 08:30:56;;;;;;;;;;;13.20;99.90;;;;;;7615881;19;19918;-78
2023/09/25 08:33:29;;;;;;;;;;;13.20;99.90;;;;;;7617443;19;19935;-77
2023/09/25 08:36:01;;;;;;;;;;;13.30;99.90;;;;;;7613108;19;19925;-77
2023/09/25 08:38:33;;;;;;;;;;;13.30;99.90;;;;;;7608122;19;19923;-77
2023/09/25 08:41:05;;;;;;;;;;;13.30;99.90;;;;;;7617368;19;19923;-77
2023/09/25 08:43:39;;;;;;;;;;;13.40;99.90;;;;;;7620542;19;19933;-78
2023/09/25 08:46:11;;;;;;;;;;;13.40;99.90;;;;;;7623254;19;19918;-76
2023/09/25 08:48:44;;;;;;;;;;;13.50;99.90;;;;;;7618195;19;19923;-78
2023/09/25 08:51:17;;;;;;;;;;;13.50;99.90;;;;;;7623774;19;19922;-78
2023/09/25 08:53:49;;;;;;;;;;;13.60;99.90;;;;;;7619470;19;19910;-78
2023/09/25 08:56:21;;;;;;;;;;;13.60;99.90;;;;;;7620269;19;19926;-77
2023/09/25 08:58:54;;;;;;;;;;;13.80;99.90;;;;;;7613428;19;21264;-78
2023/09/25 09:01:28;;;;;;;;;;;13.70;99.90;;;;;;7623665;19;19930;-78
2023/09/25 09:04:00;;;;;;;;;;;13.80;99.90;;;;;;7618728;19;20473;-80
2023/09/25 09:06:32;;;;;;;;;;;14.10;99.90;;;;;;7613800;19;19918;-76
2023/09/25 09:09:07;;;;;;;;;;;14.30;99.90;;;;;;7613694;19;21047;-75
2023/09/25 09:11:48;;;;;;;;;;;14.30;99.90;;;;;;7611347;19;20329;-78
2023/09/25 09:14:38;;;;;;;;;;;14.30;99.90;;;;;;7616297;19;19954;-78
2023/09/25 09:17:11;;;;;;;;;;;14.30;99.90;;;;;;7605174;19;19930;-77
2023/09/25 09:19:46;;;;;;;;;;;14.30;99.90;;;;;;7608535;19;21339;-76
2023/09/25 09:22:19;;;;;;;;;;;13.90;99.90;;;;;;7619351;19;19933;-76
2023/09/25 09:24:56;;;;;;;;;;;14.50;99.90;;;;;;7605186;19;20341;-79
2023/09/25 09:27:29;;;;;;;;;;;14.50;99.90;;;;;;7598443;19;19914;-78
2023/09/25 09:30:04;;;;;;;;;;;14.60;99.90;;;;;;7611694;19;19923;-79
2023/09/25 09:32:39;;;;;;;;;;;14.70;99.90;;;;;;7603239;19;19922;-77
2023/09/25 09:35:14;;;;;;;;;;;14.70;99.90;;;;;;7606466;19;19915;-78
2023/09/25 09:37:48;;;;;;;;;;;14.70;99.90;;;;;;7594456;19;19929;-77
2023/09/25 09:40:21;;;;;;;;;;;14.80;99.90;;;;;;7602934;19;19915;-78
2023/09/25 09:42:53;;;;;;;;;;;14.90;99.90;;;;;;7606291;19;19929;-78
2023/09/25 09:45:27;;;;;;;;;;;14.90;99.90;;;;;;7601925;19;19921;-78
2023/09/25 09:48:00;;;;;;;;;;;15.00;99.90;;;;;;7596750;19;19915;-79
2023/09/25 09:50:33;;;;;;;;;;;15.10;99.90;;;;;;7600780;19;19952;-74
2023/09/25 09:53:07;;;;;;;;;;;15.20;99.90;;;;;;7606024;19;19923;-78
2023/09/25 09:55:39;;;;;;;;;;;15.20;99.90;;;;;;7597542;19;19956;-77
2023/09/25 09:58:12;;;;;;;;;;;15.20;99.90;;;;;;7615146;19;19918;-79
2023/09/25 10:00:44;;;;;;;;;;;15.30;99.90;;;;;;7610258;19;19944;-76
2023/09/25 10:03:17;;;;;;;;;;;15.40;99.90;;;;;;7628238;19;19954;-77
2023/09/25 10:05:51;;;;;;;;;;;15.40;99.90;;;;;;7633062;19;19914;-76
2023/09/25 10:08:23;;;;;;;;;;;15.50;99.90;;;;;;7616417;19;19926;-78
2023/09/25 10:11:13;;;;;;;;;;;15.50;99.90;;;;;;7621159;19;19918;-77
2023/09/25 10:13:45;;;;;;;;;;;15.60;99.90;;;;;;7615996;19;19920;-77
2023/09/25 10:16:17;;;;;;;;;;;15.70;99.90;;;;;;7609046;19;20317;-77
2023/09/25 10:18:53;;;;;;;;;;;15.70;99.90;;;;;;7612487;19;20840;-76
2023/09/25 10:21:25;;;;;;;;;;;15.80;99.90;;;;;;7612201;19;19911;-78
2023/09/25 10:23:58;;;;;;;;;;;15.90;99.90;;;;;;7610908;19;20473;-77
2023/09/25 10:26:31;;;;;;;;;;;16.00;99.90;;;;;;7608196;19;19926;-77
2023/09/25 10:29:14;;;;;;;;;;;16.00;99.90;;;;;;7609592;19;19955;-77
2023/09/25 10:31:46;;;;;;;;;;;16.10;99.90;;;;;;7600975;19;19926;-77
2023/09/25 10:34:22;;;;;;;;;;;16.10;99.90;;;;;;7597965;19;19927;-78
2023/09/25 10:36:59;;;;;;;;;;;16.20;99.90;;;;;;7597147;19;19918;-76
2023/09/25 10:39:31;;;;;;;;;;;16.30;99.90;;;;;;7587492;19;22571;-77
2023/09/25 10:42:07;;;;;;;;;;;16.30;99.90;;;;;;7600353;19;19921;-75
2023/09/25 10:44:43;;;;;;;;;;;16.40;99.90;;;;;;7588700;19;19931;-76
2023/09/25 10:47:16;;;;;;;;;;;16.50;99.90;;;;;;7585953;19;19923;-76
2023/09/25 10:49:48;;;;;;;;;;;16.40;99.90;;;;;;7597797;19;19933;-77
2023/09/25 10:52:20;;;;;;;;;;;16.60;99.90;;;;;;7598677;19;19935;-78
2023/09/25 10:54:53;;;;;;;;;;;17.00;99.90;;;;;;7597460;19;20401;-77
2023/09/25 10:57:25;;;;;;;;;;;16.70;99.90;;;;;;7585223;19;19960;-76
2023/09/25 11:00:08;;;;;;;;;;;16.80;99.90;;;;;;7594315;19;19918;-77
2023/09/25 11:02:41;;;;;;;;;;;16.90;99.90;;;;;;7584668;19;19990;-76
2023/09/25 11:05:13;;;;;;;;;;;17.20;99.90;;;;;;7591699;19;19923;-78
2023/09/25 11:07:46;;;;;;;;;;;17.50;99.90;;;;;;7600516;19;19918;-76
2023/09/25 11:10:18;;;;;;;;;;;17.50;99.90;;;;;;7608427;19;19915;-76
2023/09/25 11:12:51;;;;;;;;;;;17.60;99.90;;;;;;7590258;19;19919;-76
2023/09/25 11:15:26;;;;;;;;;;;17.70;99.90;;;;;;7602426;19;19974;-76
2023/09/25 11:18:00;;;;;;;;;;;17.70;99.90;;;;;;7580623;19;19945;-76
2023/09/25 11:20:33;;;;;;;;;;;17.70;99.90;;;;;;7590742;19;19922;-75
2023/09/25 11:23:06;;;;;;;;;;;17.80;99.90;;;;;;7589377;19;20473;-76
2023/09/25 11:25:52;;;;;;;;;;;18.00;99.90;;;;;;7561224;19;19995;-75
2023/09/25 11:28:27;;;;;;;;;;;18.70;99.90;;;;;;7600801;19;19926;-78
2023/09/25 11:31:01;;;;;;;;;;;19.50;99.90;;;;;;7577641;19;19926;-77
2023/09/25 11:33:34;;;;;;;;;;;20.20;99.90;;;;;;7587185;19;19926;-75
2023/09/25 11:36:09;;;;;;;;;;;21.10;99.10;;;;;;7588454;19;20010;-76
2023/09/25 11:38:48;;;;;;;;;;;21.90;98.50;;;;;;7602446;19;20019;-77
2023/09/25 11:41:20;;;;;;;;;;;22.60;96.00;;;;;;7598113;19;20958;-75
2023/09/25 11:43:52;;;;;;;;;;;23.10;95.10;;;;;;7578338;19;19942;-75
2023/09/25 11:46:24;;;;;;;;;;;23.30;94.20;;;;;;7592086;19;21643;-76
2023/09/25 11:48:57;;;;;;;;;;;23.60;94.30;;;;;;7572173;19;20524;-76
2023/09/25 11:51:30;;;;;;;;;;;24.10;92.70;;;;;;7574391;19;19926;-76
2023/09/25 11:54:02;;;;;;;;;;;24.20;91.10;;;;;;7572412;19;19922;-75
2023/09/25 11:56:37;;;;;;;;;;;23.80;91.40;;;;;;7594304;19;19929;-76
2023/09/25 11:59:11;;;;;;;;;;;23.80;91.80;;;;;;7595854;19;19922;-75
2023/09/25 12:01:45;;;;;;;;;;;24.30;90.30;;;;;;7584928;19;19921;-77
2023/09/25 12:04:18;;;;;;;;;;;24.40;89.50;;;;;;7573686;19;19931;-75
2023/09/25 12:06:51;;;;;;;;;;;24.60;88.70;;;;;;7600889;19;19914;-77
2023/09/25 12:09:24;;;;;;;;;;;24.90;88.30;;;;;;7604624;19;19922;-76
2023/09/25 12:11:56;;;;;;;;;;;25.20;88.60;;;;;;7603135;19;20011;-76
2023/09/25 12:14:28;;;;;;;;;;;25.80;83.60;;;;;;7601855;19;19923;-76
2023/09/25 12:17:00;;;;;;;;;;;25.70;81.90;;;;;;7575558;19;19921;-76
2023/09/25 12:19:33;;;;;;;;;;;26.00;83.20;;;;;;7575976;19;19923;-76
2023/09/25 12:22:06;;;;;;;;;;;26.40;80.00;;;;;;7584326;19;20199;-75
2023/09/25 12:24:38;;;;;;;;;;;26.70;78.70;;;;;;7593548;19;19957;-76
2023/09/25 12:27:11;;;;;;;;;;;26.40;78.30;;;;;;7580609;19;20993;-76
2023/09/25 12:29:46;;;;;;;;;;;26.60;77.90;;;;;;7587162;19;20042;-76
2023/09/25 12:32:18;;;;;;;;;;;26.60;75.90;;;;;;7575643;19;20356;-76
2023/09/25 12:34:50;;;;;;;;;;;26.30;75.70;;;;;;7573654;19;19919;-75
2023/09/25 12:37:25;;;;;;;;;;;26.80;76.20;;;;;;7576376;19;20016;-74
2023/09/25 12:39:57;;;;;;;;;;;27.20;75.00;;;;;;7577904;19;19922;-74
2023/09/25 12:42:30;;;;;;;;;;;27.40;73.30;;;;;;7578579;19;21044;-75
2023/09/25 12:45:22;;;;;;;;;;;27.40;71.50;;;;;;7573029;19;21031;-74
2023/09/25 12:47:55;;;;;;;;;;;27.90;70.50;;;;;;7573137;19;21354;-74
2023/09/25 12:50:30;;;;;;;;;;;27.80;70.40;;;;;;7582828;19;19921;-73
2023/09/25 12:53:05;;;;;;;;;;;28.20;68.00;;;;;;7568709;19;19914;-73
2023/09/25 12:55:38;;;;;;;;;;;28.30;68.90;;;;;;7576971;19;19926;-74
2023/09/25 12:58:10;;;;;;;;;;;28.80;66.20;;;;;;7576999;19;20673;-75
2023/09/25 13:00:42;;;;;;;;;;;28.50;65.40;;;;;;7566667;19;19915;-77
2023/09/25 13:03:15;;;;;;;;;;;29.00;64.50;;;;;;7583291;19;19929;-74
2023/09/25 13:05:48;;;;;;;;;;;29.40;63.50;;;;;;7567228;19;19920;-73
2023/09/25 13:08:20;;;;;;;;;;;29.60;62.00;;;;;;7588102;19;19947;-76
2023/09/25 13:10:52;;;;;;;;;;;29.30;61.30;;;;;;7590790;19;20390;-74
2023/09/25 13:13:25;;;;;;;;;;;29.30;61.10;;;;;;7557246;19;19926;-74
2023/09/25 13:15:57;;;;;;;;;;;29.50;62.40;;;;;;7574714;19;20383;-73
2023/09/25 13:18:30;;;;;;;;;;;29.60;61.30;;;;;;7567589;19;19926;-73
2023/09/25 13:21:03;;;;;;;;;;;29.80;60.50;;;;;;7582646;19;19921;-74
2023/09/25 13:23:35;;;;;;;;;;;30.10;59.70;;;;;;7592752;19;19922;-74
2023/09/25 13:26:07;;;;;;;;;;;29.90;59.50;;;;;;7588675;19;19941;-75
2023/09/25 13:28:40;;;;;;;;;;;30.10;60.50;;;;;;7602339;19;19919;-74
2023/09/25 13:31:12;;;;;;;;;;;29.80;59.80;;;;;;7593669;19;19933;-73
2023/09/25 13:33:45;;;;;;;;;;;30.30;60.20;;;;;;7596979;19;19934;-74
2023/09/25 13:36:17;;;;;;;;;;;30.70;58.80;;;;;;7590628;19;20754;-72
2023/09/25 13:38:50;;;;;;;;;;;30.80;57.70;;;;;;7596927;19;19956;-74
2023/09/25 13:41:22;;;;;;;;;;;31.00;58.20;;;;;;7595366;19;20039;-73
2023/09/25 13:43:54;;;;;;;;;;;30.70;58.10;;;;;;7593366;19;20001;-73
2023/09/25 13:46:27;;;;;;;;;;;31.10;58.00;;;;;;7583651;19;20985;-73
2023/09/25 13:49:00;;;;;;;;;;;31.10;57.00;;;;;;7571689;19;19926;-73
2023/09/25 13:51:32;;;;;;;;;;;31.40;56.10;;;;;;7595052;19;19954;-72
2023/09/25 13:54:04;;;;;;;;;;;31.60;55.50;;;;;;7568199;19;20368;-72
2023/09/25 13:56:37;;;;;;;;;;;31.90;54.70;;;;;;7581216;19;19933;-71
2023/09/25 13:59:09;;;;;;;;;;;32.10;55.30;;;;;;7587262;19;19944;-72
2023/09/25 14:01:41;;;;;;;;;;;32.20;54.20;;;;;;7593894;19;19914;-72
2023/09/25 14:04:15;;;;;;;;;;;31.70;54.40;;;;;;7589390;19;19927;-74
2023/09/25 14:06:48;;;;;;;;;;;32.00;54.70;;;;;;7594184;19;19929;-73
2023/09/25 14:09:20;;;;;;;;;;;32.20;53.40;;;;;;7574993;19;21488;-73
2023/09/25 14:11:53;;;;;;;;;;;32.60;54.40;;;;;;7598877;19;19919;-76
2023/09/25 14:14:38;;;;;;;;;;;32.80;53.20;;;;;;7592284;19;21866;-76
2023/09/25 14:17:11;;;;;;;;;;;33.00;53.80;;;;;;7571092;19;19929;-74
2023/09/25 14:19:43;;;;;;;;;;;33.00;53.90;;;;;;7567196;19;20700;-74
2023/09/25 14:22:16;;;;;;;;;;;32.90;53.20;;;;;;7582697;19;19923;-73
2023/09/25 14:24:48;;;;;;;;;;;32.60;53.50;;;;;;7598504;19;19961;-73
2023/09/25 14:27:20;;;;;;;;;;;32.50;56.20;;;;;;7599813;19;19962;-75
2023/09/25 14:29:54;;;;;;;;;;;32.80;53.50;;;;;;7601903;19;20869;-77
2023/09/25 14:32:26;;;;;;;;;;;31.80;55.20;;;;;;7595964;19;20835;-73
2023/09/25 14:34:59;;;;;;;;;;;31.30;56.70;;;;;;7596523;19;19922;-73
2023/09/25 14:37:34;;;;;;;;;;;30.50;56.90;;;;;;7601002;19;19919;-73
2023/09/25 14:40:07;;;;;;;;;;;29.50;59.60;;;;;;7600798;19;19926;-75
2023/09/25 14:42:40;;;;;;;;;;;29.50;59.20;;;;;;7607147;19;19934;-72
2023/09/25 14:45:15;;;;;;;;;;;28.00;61.20;;;;;;7596736;19;21033;-73
2023/09/25 14:47:47;;;;;;;;;;;26.70;63.90;;;;;;7589828;19;19918;-73
2023/09/25 14:50:20;;;;;;;;;;;25.90;66.30;;;;;;7604288;19;19926;-75
2023/09/25 14:52:52;;;;;;;;;;;25.30;66.70;;;;;;7606859;19;19915;-75
2023/09/25 14:55:24;;;;;;;;;;;25.20;67.50;;;;;;7597028;19;19919;-73
2023/09/25 14:57:57;;;;;;;;;;;24.60;68.40;;;;;;7601029;19;19923;-74